createdAt,value
2022-09-15T00:01:57.686Z,101095.22
2022-09-15T00:04:24.159Z,101090.13
2022-09-15T00:06:50.659Z,101089.78
2022-09-15T00:09:17.128Z,101092.22
2022-09-15T00:11:43.724Z,101093.66
2022-09-15T00:14:10.243Z,101098.19
2022-09-15T00:16:37.123Z,101094.50
2022-09-15T00:19:04.350Z,101095.13
2022-09-15T00:21:34.158Z,101103.53
2022-09-15T00:24:03.045Z,101102.50
2022-09-15T00:26:31.706Z,101101.69
2022-09-15T00:28:59.747Z,101103.78
2022-09-15T00:31:28.516Z,101100.72
2022-09-15T00:33:57.147Z,101098.69
2022-09-15T00:36:24.876Z,101087.47
2022-09-15T00:38:51.691Z,101093.81
2022-09-15T00:41:20.986Z,101087.47
2022-09-15T00:43:55.181Z,101093.22
2022-09-15T00:46:24.844Z,101084.22
2022-09-15T00:48:57.588Z,101086.63
2022-09-15T00:51:51.050Z,101085.41
2022-09-15T00:54:22.624Z,101096.25
2022-09-15T00:56:53.169Z,101094.38
2022-09-15T00:59:24.363Z,101090.97
2022-09-15T01:02:01.128Z,101100.16
2022-09-15T01:04:27.683Z,101096.50
2022-09-15T01:07:00.298Z,101097.09
2022-09-15T01:09:36.363Z,101091.97
2022-09-15T01:12:03.742Z,101098.75
2022-09-15T01:14:30.236Z,101090.56
2022-09-15T01:17:19.010Z,101094.66
2022-09-15T01:20:04.082Z,101087.13
2022-09-15T01:22:41.517Z,101083.81
2022-09-15T01:26:05.050Z,101088.38
2022-09-15T01:28:58.876Z,101079.34
2022-09-15T01:32:05.070Z,101087.13
2022-09-15T01:34:40.465Z,101080.63
2022-09-15T01:37:15.334Z,101089.22
2022-09-15T01:39:45.005Z,101085.72
2022-09-15T01:42:15.338Z,101085.94
2022-09-15T01:45:02.520Z,101082.66
2022-09-15T01:47:30.344Z,101081.03
2022-09-15T01:50:02.977Z,101084.69
2022-09-15T01:52:30.708Z,101078.94
2022-09-15T01:55:02.262Z,101084.06
2022-09-15T01:57:28.853Z,101082.63
2022-09-15T01:59:56.415Z,101081.00
2022-09-15T02:02:33.343Z,101087.94
2022-09-15T02:05:06.208Z,101079.13
2022-09-15T02:07:35.459Z,101084.44
2022-09-15T02:10:13.555Z,101083.66
2022-09-15T02:12:54.578Z,101082.22
2022-09-15T02:15:33.403Z,101082.84
2022-09-15T02:18:02.608Z,101077.31
2022-09-15T02:20:33.088Z,101073.25
2022-09-15T02:23:08.452Z,101068.50
2022-09-15T02:25:41.416Z,101068.69
2022-09-15T02:28:11.624Z,101069.50
2022-09-15T02:30:42.003Z,101072.34
2022-09-15T02:33:14.090Z,101075.22
2022-09-15T02:35:42.254Z,101070.06
2022-09-15T02:38:10.597Z,101077.88
2022-09-15T02:40:41.236Z,101074.59
2022-09-15T02:43:12.408Z,101080.69
2022-09-15T02:45:39.430Z,101070.66
2022-09-15T02:48:06.309Z,101074.75
2022-09-15T02:50:32.782Z,101068.19
2022-09-15T02:52:59.270Z,101073.47
2022-09-15T02:55:29.022Z,101074.25
2022-09-15T02:57:59.265Z,101084.66
2022-09-15T03:00:27.096Z,101077.66
2022-09-15T03:02:54.814Z,101084.75
2022-09-15T03:05:24.949Z,101094.38
2022-09-15T03:07:52.199Z,101092.28
2022-09-15T03:10:19.112Z,101099.84
2022-09-15T03:12:48.354Z,101099.47
2022-09-15T03:15:17.660Z,101101.97
2022-09-15T03:17:46.320Z,101103.63
2022-09-15T03:20:16.941Z,101106.94
2022-09-15T03:22:43.964Z,101110.66
2022-09-15T03:25:11.275Z,101120.31
2022-09-15T03:27:38.370Z,101109.91
2022-09-15T03:30:06.707Z,101116.91
2022-09-15T03:32:33.257Z,101111.81
2022-09-15T03:34:59.723Z,101115.94
2022-09-15T03:37:26.652Z,101112.94
2022-09-15T03:39:53.212Z,101111.31
2022-09-15T03:42:20.345Z,101106.22
2022-09-15T03:44:46.887Z,101105.44
2022-09-15T03:47:13.501Z,101116.91
2022-09-15T03:49:39.979Z,101117.53
2022-09-15T03:52:06.429Z,101118.56
2022-09-15T03:54:32.915Z,101112.84
2022-09-15T03:56:59.462Z,101118.78
2022-09-15T03:59:25.970Z,101118.81
2022-09-15T04:01:52.665Z,101125.59
2022-09-15T04:04:19.242Z,101120.66
2022-09-15T04:06:45.771Z,101117.00
2022-09-15T04:09:12.278Z,101114.13
2022-09-15T04:11:39.647Z,101117.19
2022-09-15T04:14:06.339Z,101118.41
2022-09-15T04:16:33.804Z,101115.56
2022-09-15T04:19:00.439Z,101117.00
2022-09-15T04:21:26.975Z,101118.03
2022-09-15T04:23:54.631Z,101114.13
2022-09-15T04:26:34.169Z,101120.50
2022-09-15T04:29:04.619Z,101117.84
2022-09-15T04:31:32.151Z,101121.72
2022-09-15T04:33:59.390Z,101126.03
2022-09-15T04:36:28.250Z,101117.00
2022-09-15T04:38:55.371Z,101111.88
2022-09-15T04:41:22.533Z,101113.91
2022-09-15T04:43:49.565Z,101112.44
2022-09-15T04:46:16.906Z,101109.72
2022-09-15T04:48:45.501Z,101096.38
2022-09-15T04:51:14.896Z,101107.19
2022-09-15T04:53:41.995Z,101109.38
2022-09-15T04:56:11.987Z,101111.63
2022-09-15T04:58:46.558Z,101111.63
2022-09-15T05:01:15.971Z,101110.22
2022-09-15T05:03:43.046Z,101099.78
2022-09-15T05:06:12.331Z,101100.22
2022-09-15T05:08:39.398Z,101104.72
2022-09-15T05:11:09.019Z,101106.97
2022-09-15T05:13:36.844Z,101109.66
2022-09-15T05:16:05.885Z,101107.81
2022-09-15T05:18:33.183Z,101110.03
2022-09-15T05:21:00.957Z,101120.25
2022-09-15T05:23:28.475Z,101111.44
2022-09-15T05:25:59.340Z,101104.31
2022-09-15T05:28:26.129Z,101117.63
2022-09-15T05:30:54.281Z,101122.13
2022-09-15T05:33:22.351Z,101116.28
2022-09-15T05:35:52.193Z,101121.38
2022-09-15T05:38:18.774Z,101115.66
2022-09-15T05:40:45.488Z,101119.75
2022-09-15T05:43:12.078Z,101126.53
2022-09-15T05:45:38.532Z,101121.84
2022-09-15T05:48:05.111Z,101124.72
2022-09-15T05:50:31.825Z,101107.09
2022-09-15T05:52:58.272Z,101123.28
2022-09-15T05:55:24.821Z,101132.09
2022-09-15T05:57:51.325Z,101131.69
2022-09-15T06:00:19.003Z,101135.81
2022-09-15T06:02:45.517Z,101134.78
2022-09-15T06:05:12.175Z,101134.38
2022-09-15T06:07:39.217Z,101132.97
2022-09-15T06:10:06.526Z,101146.06
2022-09-15T06:12:33.004Z,101139.34
2022-09-15T06:14:59.821Z,101143.41
2022-09-15T06:17:26.486Z,101143.00
2022-09-15T06:19:53.119Z,101152.88
2022-09-15T06:22:19.600Z,101151.41
2022-09-15T06:24:46.151Z,101159.00
2022-09-15T06:27:12.660Z,101165.16
2022-09-15T06:29:39.139Z,101166.41
2022-09-15T06:32:05.780Z,101164.56
2022-09-15T06:34:32.891Z,101167.44
2022-09-15T06:36:59.934Z,101173.38
2022-09-15T06:39:27.179Z,101178.47
2022-09-15T06:42:02.202Z,101174.41
2022-09-15T06:44:29.788Z,101170.91
2022-09-15T06:46:56.252Z,101164.97
2022-09-15T06:49:22.950Z,101172.97
2022-09-15T06:51:49.524Z,101175.44
2022-09-15T06:54:16.224Z,101178.31
2022-09-15T06:56:43.447Z,101181.41
2022-09-15T06:59:15.345Z,101172.34
2022-09-15T07:01:42.581Z,101184.66
2022-09-15T07:04:09.987Z,101190.78
2022-09-15T07:06:38.619Z,101197.13
2022-09-15T07:09:06.006Z,101194.69
2022-09-15T07:11:33.132Z,101197.78
2022-09-15T07:13:59.650Z,101198.38
2022-09-15T07:16:26.268Z,101199.38
2022-09-15T07:18:56.057Z,101199.97
2022-09-15T07:21:23.353Z,101193.03
2022-09-15T07:23:50.406Z,101192.81
2022-09-15T07:26:28.375Z,101197.28
2022-09-15T07:28:57.349Z,101200.97
2022-09-15T07:31:26.029Z,101205.09
2022-09-15T07:33:53.242Z,101203.88
2022-09-15T07:36:19.994Z,101203.19
2022-09-15T07:38:48.730Z,101206.78
2022-09-15T07:41:23.668Z,101208.94
2022-09-15T07:43:52.236Z,101206.03
2022-09-15T07:46:20.367Z,101215.97
2022-09-15T07:48:48.301Z,101224.84
2022-09-15T07:51:15.943Z,101223.34
2022-09-15T07:53:43.907Z,101221.06
2022-09-15T07:56:10.662Z,101219.16
2022-09-15T07:58:37.107Z,101224.22
2022-09-15T08:01:06.066Z,101233.75
2022-09-15T08:03:32.921Z,101234.59
2022-09-15T08:06:00.282Z,101233.06
2022-09-15T08:08:26.952Z,101229.94
2022-09-15T08:10:53.763Z,101228.09
2022-09-15T08:13:20.383Z,101227.66
2022-09-15T08:15:47.932Z,101231.91
2022-09-15T08:18:15.407Z,101240.31
2022-09-15T08:20:42.631Z,101238.91
2022-09-15T08:23:11.063Z,101243.97
2022-09-15T08:25:40.510Z,101248.25
2022-09-15T08:28:07.157Z,101245.81
2022-09-15T08:30:33.779Z,101250.41
2022-09-15T08:33:00.238Z,101256.19
2022-09-15T08:35:26.775Z,101256.38
2022-09-15T08:37:55.022Z,101272.22
2022-09-15T08:40:27.454Z,101271.47
2022-09-15T08:42:57.980Z,101274.09
2022-09-15T08:45:32.532Z,101267.66
2022-09-15T08:48:03.305Z,101269.88
2022-09-15T08:50:35.804Z,101276.72
2022-09-15T08:53:11.911Z,101278.59
2022-09-15T08:55:55.066Z,101287.91
2022-09-15T08:58:37.663Z,101291.78
2022-09-15T09:01:10.456Z,101298.66
2022-09-15T09:03:49.336Z,101295.63
2022-09-15T09:06:48.079Z,101306.50
2022-09-15T09:09:27.895Z,101296.41
2022-09-15T09:12:13.229Z,101297.09
2022-09-15T09:15:07.317Z,101301.28
2022-09-15T09:18:04.126Z,101303.34
2022-09-15T09:20:52.657Z,101297.84
2022-09-15T09:23:23.927Z,101306.47
2022-09-15T09:25:52.158Z,101306.06
2022-09-15T09:28:32.210Z,101303.00
2022-09-15T09:31:08.295Z,101301.09
2022-09-15T09:33:47.611Z,101303.56
2022-09-15T09:36:14.698Z,101308.41
2022-09-15T09:38:43.932Z,101308.75
2022-09-15T09:41:17.122Z,101312.16
2022-09-15T09:43:47.396Z,101311.13
2022-09-15T09:46:16.649Z,101314.44
2022-09-15T09:48:47.631Z,101321.19
2022-09-15T09:51:32.037Z,101312.97
2022-09-15T09:54:20.808Z,101321.72
2022-09-15T09:56:53.633Z,101318.50
2022-09-15T09:59:40.395Z,101380.28
2022-09-15T10:02:18.917Z,101365.25
2022-09-15T10:04:48.330Z,101170.41
2022-09-15T10:07:18.615Z,101586.16
2022-09-15T10:09:52.532Z,101487.25
2022-09-15T10:12:39.748Z,101503.72
2022-09-15T10:15:20.211Z,101489.66
2022-09-15T10:17:49.607Z,101487.22
2022-09-15T10:20:28.227Z,101515.91
2022-09-15T10:23:19.089Z,101504.53
2022-09-15T10:26:01.342Z,101516.50
2022-09-15T10:28:28.626Z,101555.75
2022-09-15T10:31:15.761Z,101547.28
2022-09-15T10:33:47.701Z,101551.72
2022-09-15T10:36:22.492Z,101556.63
2022-09-15T10:38:54.723Z,101554.47
2022-09-15T10:41:37.674Z,101558.25
2022-09-15T10:44:38.311Z,101556.59
2022-09-15T10:47:07.603Z,101557.00
2022-09-15T10:49:52.100Z,101535.41
2022-09-15T10:52:25.719Z,101568.97
2022-09-15T10:55:15.620Z,101599.09
2022-09-15T10:58:06.236Z,101601.63
2022-09-15T11:01:11.327Z,101553.50
2022-09-15T11:04:15.357Z,101553.25
2022-09-15T11:06:50.501Z,101548.22
2022-09-15T11:09:26.229Z,101544.03
2022-09-15T11:12:04.966Z,101552.94
2022-09-15T11:14:56.457Z,101574.59
2022-09-15T11:17:42.505Z,101583.91
2022-09-15T11:20:32.580Z,101585.47
2022-09-15T11:23:11.511Z,101585.41
2022-09-15T11:25:46.799Z,101589.44
2022-09-15T11:28:32.980Z,101579.06
2022-09-15T11:31:02.457Z,101579.75
2022-09-15T11:33:45.210Z,101606.03
2022-09-15T11:36:23.004Z,101540.06
2022-09-15T11:39:13.170Z,101555.59
2022-09-15T11:41:48.459Z,101582.50
2022-09-15T11:44:16.638Z,101582.72
2022-09-15T11:47:02.679Z,101594.38
2022-09-15T11:49:44.944Z,101602.88
2022-09-15T11:52:24.810Z,101594.78
2022-09-15T11:55:02.727Z,101598.13
2022-09-15T11:57:38.980Z,101600.72
2022-09-15T12:00:13.177Z,101598.59
2022-09-15T12:02:49.187Z,101590.03
2022-09-15T12:05:22.218Z,101595.63
2022-09-15T12:07:56.040Z,101599.41
2022-09-15T12:10:39.869Z,101593.53
2022-09-15T12:13:10.130Z,101588.41
2022-09-15T12:15:37.746Z,101597.22
2022-09-15T12:18:43.861Z,101594.44
2022-09-15T12:21:19.693Z,101590.44
2022-09-15T12:24:02.949Z,101589.88
2022-09-15T12:26:33.139Z,101593.44
2022-09-15T12:29:04.932Z,101593.59
2022-09-15T12:31:31.477Z,101597.34
2022-09-15T12:33:57.926Z,101590.09
2022-09-15T12:36:51.316Z,101588.88
2022-09-15T12:39:32.296Z,101596.09
2022-09-15T12:42:10.935Z,101590.75
2022-09-15T12:44:47.965Z,101586.66
2022-09-15T12:47:29.641Z,101594.84
2022-09-15T12:50:04.878Z,101598.16
2022-09-15T12:52:31.979Z,101592.41
2022-09-15T12:55:02.665Z,101597.50
2022-09-15T12:57:33.529Z,101597.75
2022-09-15T13:00:35.587Z,101597.16
2022-09-15T13:03:03.927Z,101608.84
2022-09-15T13:05:42.379Z,101610.47
2022-09-15T13:08:24.818Z,101615.25
2022-09-15T13:11:14.137Z,101607.31
2022-09-15T13:14:14.857Z,101606.28
2022-09-15T13:16:41.419Z,101612.19
2022-09-15T13:19:24.183Z,101617.34
2022-09-15T13:22:12.213Z,101615.97
2022-09-15T13:25:01.504Z,101617.50
2022-09-15T13:27:36.359Z,101624.19
2022-09-15T13:30:24.342Z,101631.69
2022-09-15T13:33:03.671Z,101632.44
2022-09-15T13:35:56.511Z,101631.22
2022-09-15T13:38:47.408Z,101630.75
2022-09-15T13:42:04.537Z,101630.69
2022-09-15T13:44:54.501Z,101637.81
2022-09-15T13:47:38.262Z,101631.81
2022-09-15T13:50:04.636Z,101634.16
2022-09-15T13:52:58.044Z,101628.91
2022-09-15T13:55:28.033Z,101637.44
2022-09-15T14:00:55.036Z,101639.03
2022-09-15T14:03:37.106Z,101614.41
2022-09-15T14:06:22.340Z,101602.34
2022-09-15T14:08:53.711Z,101607.88
2022-09-15T14:11:30.727Z,101612.78
2022-09-15T14:14:00.738Z,101609.13
2022-09-15T14:16:27.914Z,101610.25
2022-09-15T14:18:57.693Z,101612.41
2022-09-15T14:21:29.507Z,101609.22
2022-09-15T14:23:58.599Z,101600.16
2022-09-15T14:26:29.086Z,101596.94
2022-09-15T14:29:06.788Z,101598.00
2022-09-15T14:31:39.065Z,101603.69
2022-09-15T14:34:09.759Z,101599.13
2022-09-15T14:36:36.322Z,101602.59
2022-09-15T14:39:12.805Z,101602.53
2022-09-15T14:41:40.192Z,101596.56
2022-09-15T14:45:54.494Z,101600.91
2022-09-15T14:47:20.816Z,101598.25
2022-09-15T14:49:47.749Z,101606.47
2022-09-15T14:52:31.890Z,101613.00
2022-09-15T14:55:02.594Z,101610.09
2022-09-15T14:57:32.206Z,101598.97
2022-09-15T15:00:07.099Z,101606.16
2022-09-15T15:02:33.597Z,101606.19
2022-09-15T15:05:31.974Z,101608.44
2022-09-15T15:08:03.980Z,101608.28
2022-09-15T15:10:35.680Z,101612.31
2022-09-15T15:13:07.990Z,101610.66
2022-09-15T15:15:37.958Z,101612.47
2022-09-15T15:18:39.047Z,101610.97
2022-09-15T15:21:26.654Z,101609.66
2022-09-15T15:23:53.875Z,101611.34
2022-09-15T15:26:28.474Z,101611.22
2022-09-15T15:28:54.999Z,101601.22
2022-09-15T15:31:25.071Z,101607.63
2022-09-15T15:33:59.296Z,101603.56
2022-09-15T15:36:28.546Z,101606.25
2022-09-15T15:39:00.876Z,101609.34
2022-09-15T15:41:29.611Z,101603.41
2022-09-15T15:44:03.509Z,101615.78
2022-09-15T15:46:53.435Z,101615.78
2022-09-15T15:49:25.325Z,101611.25
2022-09-15T15:51:55.269Z,101613.31
2022-09-15T15:54:22.865Z,101608.81
2022-09-15T15:56:49.717Z,101614.38
2022-09-15T15:59:17.377Z,101625.47
2022-09-15T16:01:45.108Z,101623.00
2022-09-15T16:04:12.222Z,101625.72
2022-09-15T16:06:39.497Z,101626.34
2022-09-15T16:09:06.185Z,101628.22
2022-09-15T16:11:32.831Z,101623.72
2022-09-15T16:13:59.718Z,101622.28
2022-09-15T16:16:27.586Z,101625.16
2022-09-15T16:18:54.521Z,101628.66
2022-09-15T16:21:28.959Z,101617.56
2022-09-15T16:23:55.521Z,101616.78
2022-09-15T16:26:24.149Z,101609.78
2022-09-15T16:28:51.453Z,101614.91
2022-09-15T16:31:17.974Z,101613.69
2022-09-15T16:33:44.461Z,101616.56
2022-09-15T16:36:18.097Z,101709.06
2022-09-15T16:38:45.114Z,101628.69
2022-09-15T16:41:17.564Z,101608.94
2022-09-15T16:43:45.509Z,101616.16
2022-09-15T16:46:13.418Z,101620.25
2022-09-15T16:48:42.691Z,101615.53
2022-09-15T16:51:31.636Z,101607.72
2022-09-15T16:54:01.247Z,101609.16
2022-09-15T16:56:28.502Z,101611.00
2022-09-15T16:59:00.133Z,101614.91
2022-09-15T17:01:27.466Z,101618.00
2022-09-15T17:03:54.152Z,101617.59
2022-09-15T17:06:22.081Z,101628.25
2022-09-15T17:08:48.975Z,101629.25
2022-09-15T17:11:18.478Z,101633.13
2022-09-15T17:13:47.158Z,101631.84
2022-09-15T17:16:15.737Z,101631.00
2022-09-15T17:18:42.296Z,101620.31
2022-09-15T17:21:12.369Z,101620.72
2022-09-15T17:23:45.792Z,101613.13
2022-09-15T17:26:17.271Z,101627.06
2022-09-15T17:28:43.724Z,101615.78
2022-09-15T17:31:19.387Z,101623.59
2022-09-15T17:33:47.137Z,101615.97
2022-09-15T17:36:13.626Z,101620.06
2022-09-15T17:38:41.153Z,101620.66
2022-09-15T17:41:16.487Z,101613.03
2022-09-15T17:43:43.056Z,101622.50
2022-09-15T17:46:09.668Z,101623.94
2022-09-15T17:48:39.215Z,101627.22
2022-09-15T17:51:07.248Z,101621.09
2022-09-15T17:53:34.201Z,101628.91
2022-09-15T17:56:00.958Z,101622.09
2022-09-15T17:58:29.944Z,101624.78
2022-09-15T18:00:57.497Z,101613.25
2022-09-15T18:03:27.966Z,101612.25
2022-09-15T18:05:59.200Z,101621.03
2022-09-15T18:08:26.791Z,101618.38
2022-09-15T18:10:53.826Z,101628.88
2022-09-15T18:13:23.473Z,101614.91
2022-09-15T18:15:50.668Z,101623.72
2022-09-15T18:18:20.016Z,101629.88
2022-09-15T18:20:46.922Z,101637.06
2022-09-15T18:23:15.588Z,101636.25
2022-09-15T18:25:43.105Z,101637.06
2022-09-15T18:28:10.576Z,101637.25
2022-09-15T18:30:41.811Z,101641.16
2022-09-15T18:33:14.043Z,101643.38
2022-09-15T18:35:41.315Z,101648.13
2022-09-15T18:38:08.316Z,101651.81
2022-09-15T18:40:34.818Z,101652.03
2022-09-15T18:43:09.045Z,101652.03
2022-09-15T18:45:35.580Z,101646.47
2022-09-15T18:48:11.956Z,101647.47
2022-09-15T18:50:40.313Z,101653.19
2022-09-15T18:53:09.817Z,101649.28
2022-09-15T18:55:36.414Z,101645.56
2022-09-15T18:58:02.970Z,101649.63
2022-09-15T19:00:29.887Z,101653.31
2022-09-15T19:03:00.762Z,101654.97
2022-09-15T19:05:28.983Z,101651.88
2022-09-15T19:07:55.635Z,101645.72
2022-09-15T19:10:23.078Z,101652.25
2022-09-15T19:12:49.615Z,101643.81
2022-09-15T19:15:16.713Z,101656.56
2022-09-15T19:17:44.022Z,101651.78
2022-09-15T19:20:14.226Z,101649.31
2022-09-15T19:22:41.698Z,101653.22
2022-09-15T19:25:09.745Z,101667.19
2022-09-15T19:27:37.953Z,101660.56
2022-09-15T19:30:05.649Z,101657.50
2022-09-15T19:32:33.478Z,101661.66
2022-09-15T19:35:00.009Z,101658.16
2022-09-15T19:37:26.639Z,101674.16
2022-09-15T19:39:53.408Z,101672.69
2022-09-15T19:42:20.100Z,101666.75
2022-09-15T19:44:47.918Z,101678.22
2022-09-15T19:47:14.816Z,101668.56
2022-09-15T19:49:41.315Z,101665.06
2022-09-15T19:52:07.940Z,101661.59
2022-09-15T19:54:34.662Z,101662.41
2022-09-15T19:57:01.842Z,101665.28
2022-09-15T19:59:31.396Z,101662.22
2022-09-15T20:01:58.694Z,101667.53
2022-09-15T20:07:09.243Z,101664.31
2022-09-15T20:09:36.345Z,101663.28
2022-09-15T20:12:03.430Z,101663.38
2022-09-15T20:14:31.398Z,101665.63
2022-09-15T20:17:00.972Z,101675.06
2022-09-15T20:19:28.112Z,101667.72
2022-09-15T20:21:54.598Z,101670.00
2022-09-15T20:24:21.635Z,101680.06
2022-09-15T20:26:48.457Z,101680.31
2022-09-15T20:29:15.757Z,101677.63
2022-09-15T20:31:42.547Z,101686.47
2022-09-15T20:34:09.336Z,101685.63
2022-09-15T20:36:38.813Z,101684.41
2022-09-15T20:39:09.293Z,101679.22
2022-09-15T20:41:36.063Z,101681.03
2022-09-15T20:44:02.955Z,101685.22
2022-09-15T20:46:31.254Z,101690.69
2022-09-15T20:48:57.754Z,101694.50
2022-09-15T20:51:26.780Z,101694.38
2022-09-15T20:53:55.502Z,101692.59
2022-09-15T20:56:25.487Z,101693.06
2022-09-15T20:58:57.152Z,101694.28
2022-09-15T21:01:43.577Z,101690.53
2022-09-15T21:04:10.639Z,101689.88
2022-09-15T21:06:37.353Z,101688.53
2022-09-15T21:09:05.306Z,101694.88
2022-09-15T21:11:31.881Z,101693.78
2022-09-15T21:13:58.871Z,101695.16
2022-09-15T21:16:27.498Z,101701.22
2022-09-15T21:18:55.418Z,101697.53
2022-09-15T21:21:29.839Z,101697.38
2022-09-15T21:24:01.787Z,101701.75
2022-09-15T21:26:30.466Z,101696.34
2022-09-15T21:28:57.542Z,101697.34
2022-09-15T21:31:26.242Z,101698.28
2022-09-15T21:33:54.138Z,101702.47
2022-09-15T21:36:23.235Z,101699.53
2022-09-15T21:38:51.853Z,101699.91
2022-09-15T21:41:22.950Z,101702.75
2022-09-15T21:43:54.957Z,101702.16
2022-09-15T21:46:24.352Z,101698.75
2022-09-15T21:48:50.881Z,101700.25
2022-09-15T21:51:23.535Z,101703.59
2022-09-15T21:53:52.241Z,101705.75
2022-09-15T21:56:19.059Z,101710.59
2022-09-15T21:58:45.622Z,101697.00
2022-09-15T22:01:23.723Z,101705.78
2022-09-15T22:03:52.980Z,101698.53
2022-09-15T22:06:21.569Z,101704.03
2022-09-15T22:08:48.778Z,101691.19
2022-09-15T22:11:15.326Z,101700.06
2022-09-15T22:13:44.611Z,101688.09
2022-09-15T22:16:14.346Z,101695.53
2022-09-15T22:18:41.874Z,101683.63
2022-09-15T22:21:11.326Z,101685.44
2022-09-15T22:23:38.703Z,101683.16
2022-09-15T22:26:08.095Z,101682.03
2022-09-15T22:28:34.987Z,101681.75
2022-09-15T22:31:04.615Z,101689.34
2022-09-15T22:33:31.456Z,101687.53
2022-09-15T22:35:58.692Z,101692.47
2022-09-15T22:38:27.266Z,101688.69
2022-09-15T22:40:53.786Z,101688.25
2022-09-15T22:43:20.306Z,101690.25
2022-09-15T22:45:47.036Z,101690.44
2022-09-15T22:48:13.709Z,101690.47
2022-09-15T22:50:40.199Z,101685.22
2022-09-15T22:53:06.733Z,101690.59
2022-09-15T22:55:33.224Z,101687.25
2022-09-15T22:57:59.701Z,101692.56
2022-09-15T23:00:27.137Z,101693.25
2022-09-15T23:02:53.990Z,101689.44
2022-09-15T23:05:20.512Z,101680.31
2022-09-15T23:07:47.110Z,101678.66
2022-09-15T23:10:13.588Z,101677.66
2022-09-15T23:12:40.038Z,101676.50
2022-09-15T23:15:07.752Z,101675.50
2022-09-15T23:17:34.505Z,101671.19
2022-09-15T23:20:01.440Z,101673.69
2022-09-15T23:22:27.972Z,101671.03
2022-09-15T23:24:54.425Z,101667.84
2022-09-15T23:27:20.963Z,101666.28
2022-09-15T23:29:47.538Z,101666.28
2022-09-15T23:32:14.055Z,101663.13
2022-09-15T23:34:40.518Z,101672.53
2022-09-15T23:37:07.044Z,101670.44
2022-09-15T23:39:33.531Z,101668.59
2022-09-15T23:42:01.326Z,101664.06
2022-09-15T23:44:27.812Z,101668.09
2022-09-15T23:46:54.341Z,101671.81
2022-09-15T23:49:20.884Z,101667.72
2022-09-15T23:51:47.381Z,101663.63
2022-09-15T23:54:14.025Z,101672.31
2022-09-15T23:56:40.948Z,101667.44
2022-09-15T23:59:07.455Z,101659.56
